Time;durP1;ratioP1;P1;durP2;ratioP2;P2;SDS_P1;SDS_P2;PMS_P1;PMS_P2;Temp;Humidity;BMP_temperature;BMP_pressure;BME280_temperature;BME280_humidity;BME280_pressure;Samples;Min_cycle;Max_cycle;Signal;HPM_P1;HPM_P2
2023/03/29 00:00:00;;;;;;;9.88;3.90;;;;;;;;;;1036242;28;20033;-15
2023/03/29 00:00:31;;;;;;;5.72;2.97;;;;;;;;;;1035668;28;20053;-21
2023/03/29 00:01:02;;;;;;;16.10;4.25;;;;;;;;;;1036256;28;20036;-19
2023/03/29 00:01:32;;;;;;;10.77;4.70;;;;;;;;;;1035953;28;20072;-18
2023/03/29 00:02:03;;;;;;;5.82;2.70;;;;;;;;;;1036220;28;20528;-18
2023/03/29 00:02:33;;;;;;;7.75;3.70;;;;;;;;;;1035836;28;20022;-18
2023/03/29 00:03:04;;;;;;;6.10;4.18;;;;;;;;;;1036140;28;20129;-20
2023/03/29 00:03:35;;;;;;;5.75;4.07;;;;;;;;;;1036031;28;20029;-19
2023/03/29 00:04:05;;;;;;;3.30;2.08;;;;;;;;;;1036201;28;20410;-17
2023/03/29 00:04:37;;;;;;;11.77;2.33;;;;;;;;;;1035462;28;20021;-18
2023/03/29 00:05:08;;;;;;;9.52;3.38;;;;;;;;;;1035764;28;20030;-18
2023/03/29 00:05:40;;;;;;;8.85;5.10;;;;;;;;;;1035994;28;20492;-17
2023/03/29 00:06:14;;;;;;;15.40;5.00;;;;;;;;;;1035947;28;20033;-19
2023/03/29 00:06:49;;;;;;;8.95;4.05;;;;;;;;;;1035623;28;20040;-20
2023/03/29 00:07:22;;;;;;;8.50;5.50;;;;;;;;;;1036151;28;20037;-15
2023/03/29 00:07:52;;;;;;;5.88;2.53;;;;;;;;;;1035912;28;20028;-20
2023/03/29 00:08:23;;;;;;;5.78;3.05;;;;;;;;;;1036025;28;20037;-19
2023/03/29 00:08:53;;;;;;;4.28;3.15;;;;;;;;;;1035908;28;20056;-18
2023/03/29 00:09:25;;;;;;;5.10;2.45;;;;;;;;;;1035939;28;20108;-23
2023/03/29 00:09:56;;;;;;;19.13;4.40;;;;;;;;;;1035779;28;20029;-21
2023/03/29 00:10:27;;;;;;;21.55;3.83;;;;;;;;;;1035925;28;20037;-19
2023/03/29 00:10:58;;;;;;;6.53;3.17;;;;;;;;;;1035032;28;20382;-19
2023/03/29 00:11:28;;;;;;;6.97;2.83;;;;;;;;;;1034804;28;20059;-24
2023/03/29 00:11:59;;;;;;;6.75;4.05;;;;;;;;;;1036111;28;20053;-19
2023/03/29 00:12:30;;;;;;;14.70;3.45;;;;;;;;;;1035801;28;20037;-21
2023/03/29 00:13:01;;;;;;;4.13;3.13;;;;;;;;;;1036098;28;20052;-17
2023/03/29 00:13:31;;;;;;;4.18;2.20;;;;;;;;;;1035936;28;20037;-18
2023/03/29 00:14:02;;;;;;;2.70;1.90;;;;;;;;;;1036223;28;20382;-18
2023/03/29 00:14:33;;;;;;;4.13;2.22;;;;;;;;;;1035824;28;20037;-18
2023/03/29 00:15:03;;;;;;;5.47;2.75;;;;;;;;;;1036128;28;20392;-17
2023/03/29 00:15:34;;;;;;;3.53;2.60;;;;;;;;;;1035806;28;20037;-19
2023/03/29 00:16:05;;;;;;;6.38;3.25;;;;;;;;;;1036116;28;20018;-16
2023/03/29 00:16:35;;;;;;;4.03;2.35;;;;;;;;;;1035931;28;20079;-19
2023/03/29 00:17:06;;;;;;;4.05;3.00;;;;;;;;;;1036118;28;20104;-21
2023/03/29 00:17:36;;;;;;;4.60;3.28;;;;;;;;;;1035807;28;20026;-21
2023/03/29 00:18:06;;;;;;;3.75;2.67;;;;;;;;;;1036142;28;20018;-16
2023/03/29 00:18:37;;;;;;;5.78;4.18;;;;;;;;;;1035934;28;20036;-20
2023/03/29 00:19:08;;;;;;;6.32;2.70;;;;;;;;;;1035948;28;20080;-20
2023/03/29 00:19:38;;;;;;;5.93;3.65;;;;;;;;;;1035984;28;20061;-16
2023/03/29 00:20:09;;;;;;;2.25;1.90;;;;;;;;;;1035904;28;20017;-21
2023/03/29 00:20:40;;;;;;;3.90;3.00;;;;;;;;;;1035975;28;20141;-18
2023/03/29 00:21:10;;;;;;;6.10;3.42;;;;;;;;;;1035661;28;20429;-19
2023/03/29 00:21:41;;;;;;;3.53;2.60;;;;;;;;;;1035409;28;20034;-19
2023/03/29 00:22:11;;;;;;;4.50;3.28;;;;;;;;;;1035977;28;20063;-19
2023/03/29 00:22:42;;;;;;;13.35;3.75;;;;;;;;;;1035909;28;20164;-18
2023/03/29 00:23:12;;;;;;;9.73;3.28;;;;;;;;;;1035040;28;20113;-20
2023/03/29 00:23:43;;;;;;;5.25;3.50;;;;;;;;;;1034784;28;20109;-18
2023/03/29 00:24:13;;;;;;;2.35;2.15;;;;;;;;;;1035904;28;20123;-19
2023/03/29 00:24:46;;;;;;;4.72;2.22;;;;;;;;;;1035837;28;20064;-18
2023/03/29 00:25:17;;;;;;;5.35;3.58;;;;;;;;;;1036122;28;20115;-17
2023/03/29 00:25:47;;;;;;;7.03;3.08;;;;;;;;;;1035924;28;20128;-19
2023/03/29 00:26:18;;;;;;;17.48;3.70;;;;;;;;;;1036125;28;20036;-19
2023/03/29 00:26:48;;;;;;;9.25;4.72;;;;;;;;;;1035737;28;20029;-18
2023/03/29 00:27:20;;;;;;;3.10;2.38;;;;;;;;;;1036057;28;20022;-18
2023/03/29 00:27:50;;;;;;;4.40;3.50;;;;;;;;;;1035890;28;20036;-21
2023/03/29 00:28:21;;;;;;;8.15;4.32;;;;;;;;;;1036056;28;20021;-20
2023/03/29 00:28:52;;;;;;;4.43;2.78;;;;;;;;;;1035798;28;20033;-15
2023/03/29 00:29:22;;;;;;;2.63;2.25;;;;;;;;;;1036041;28;20021;-16
2023/03/29 00:29:52;;;;;;;4.38;3.22;;;;;;;;;;1035928;28;20082;-17
2023/03/29 00:30:23;;;;;;;12.73;3.53;;;;;;;;;;1035932;28;20033;-18
2023/03/29 00:31:02;;;;;;;4.28;2.85;;;;;;;;;;1035820;28;20040;-16
2023/03/29 00:31:32;;;;;;;6.75;2.50;;;;;;;;;;1035820;28;20466;-20
2023/03/29 00:32:03;;;;;;;6.68;3.00;;;;;;;;;;1036072;28;20033;-17
2023/03/29 00:32:34;;;;;;;6.70;2.00;;;;;;;;;;1035788;28;20026;-16
2023/03/29 00:33:04;;;;;;;10.40;4.78;;;;;;;;;;1035946;28;20036;-18
2023/03/29 00:33:35;;;;;;;4.60;3.22;;;;;;;;;;1034899;28;20088;-17
2023/03/29 00:34:06;;;;;;;4.40;1.80;;;;;;;;;;1035685;28;20029;-18
2023/03/29 00:34:36;;;;;;;6.15;3.10;;;;;;;;;;1035780;28;20026;-15
2023/03/29 00:35:07;;;;;;;8.05;2.78;;;;;;;;;;1035145;28;20036;-19
2023/03/29 00:35:38;;;;;;;7.03;2.80;;;;;;;;;;1035404;28;20030;-19
2023/03/29 00:36:09;;;;;;;2.78;2.08;;;;;;;;;;1035984;28;20077;-17
2023/03/29 00:36:40;;;;;;;6.55;3.42;;;;;;;;;;1035382;28;20037;-21
2023/03/29 00:37:11;;;;;;;7.13;3.30;;;;;;;;;;1035465;28;20137;-17
2023/03/29 00:37:41;;;;;;;12.38;2.58;;;;;;;;;;1035541;28;20072;-17
2023/03/29 00:38:12;;;;;;;8.55;2.90;;;;;;;;;;1036075;28;20425;-19
2023/03/29 00:38:42;;;;;;;3.65;2.60;;;;;;;;;;1035618;28;20527;-19
2023/03/29 00:39:13;;;;;;;5.10;3.55;;;;;;;;;;1035662;28;20026;-19
2023/03/29 00:39:44;;;;;;;3.53;3.17;;;;;;;;;;1035803;28;20034;-17
2023/03/29 00:40:15;;;;;;;5.10;3.08;;;;;;;;;;1036046;28;20478;-19
2023/03/29 00:40:46;;;;;;;11.55;2.63;;;;;;;;;;1035719;28;20486;-18
2023/03/29 00:41:16;;;;;;;5.07;4.63;;;;;;;;;;1035986;28;20120;-21
2023/03/29 00:41:47;;;;;;;7.20;2.55;;;;;;;;;;1035699;28;20018;-21
2023/03/29 00:42:18;;;;;;;7.72;4.43;;;;;;;;;;1035841;28;20121;-17
2023/03/29 00:42:49;;;;;;;4.43;3.80;;;;;;;;;;1035600;28;20057;-19
2023/03/29 00:43:19;;;;;;;5.00;2.42;;;;;;;;;;1035904;28;20030;-19
2023/03/29 00:43:57;;;;;;;6.68;2.55;;;;;;;;;;1035817;28;20108;-20
2023/03/29 00:44:48;;;;;;;4.55;3.10;;;;;;;;;;1034719;28;20057;-18
2023/03/29 00:45:21;;;;;;;6.18;2.95;;;;;;;;;;1035121;28;20121;-17
2023/03/29 00:45:51;;;;;;;6.32;3.35;;;;;;;;;;1035717;28;20030;-18
2023/03/29 00:46:22;;;;;;;6.70;3.35;;;;;;;;;;1035904;28;20018;-19
2023/03/29 00:46:53;;;;;;;10.50;3.63;;;;;;;;;;1035821;28;20304;-21
2023/03/29 00:47:28;;;;;;;8.13;4.53;;;;;;;;;;1035798;28;20390;-16
2023/03/29 00:48:04;;;;;;;7.85;2.50;;;;;;;;;;1035103;28;20025;-19
2023/03/29 00:48:35;;;;;;;4.03;2.50;;;;;;;;;;1035707;28;20460;-20
2023/03/29 00:49:07;;;;;;;4.93;3.72;;;;;;;;;;1035874;28;20026;-17
2023/03/29 00:49:38;;;;;;;7.00;4.50;;;;;;;;;;1035527;28;20109;-20
2023/03/29 00:50:14;;;;;;;4.47;2.20;;;;;;;;;;1035765;28;20029;-20
2023/03/29 00:50:47;;;;;;;3.75;2.08;;;;;;;;;;1034738;28;20718;-21
2023/03/29 00:51:18;;;;;;;19.05;4.93;;;;;;;;;;1035340;28;21100;-18
2023/03/29 00:51:49;;;;;;;7.85;3.97;;;;;;;;;;1034953;28;20036;-17
2023/03/29 00:52:20;;;;;;;4.55;2.97;;;;;;;;;;1035490;28;20095;-17
2023/03/29 00:52:59;;;;;;;5.38;2.40;;;;;;;;;;1034543;28;20030;-21
2023/03/29 00:53:36;;;;;;;16.42;5.55;;;;;;;;;;1035335;28;20076;-20
2023/03/29 00:54:09;;;;;;;18.70;2.22;;;;;;;;;;1034966;28;20021;-18
2023/03/29 00:54:42;;;;;;;3.40;3.05;;;;;;;;;;1035330;28;20061;-19
2023/03/29 00:55:15;;;;;;;7.25;3.92;;;;;;;;;;1035456;28;20022;-18
2023/03/29 00:55:54;;;;;;;6.40;2.70;;;;;;;;;;1034560;28;20953;-17
2023/03/29 00:56:28;;;;;;;22.73;7.30;;;;;;;;;;1035425;28;20029;-19
2023/03/29 00:57:02;;;;;;;9.02;3.75;;;;;;;;;;1034735;28;20391;-18
2023/03/29 00:57:33;;;;;;;15.10;3.92;;;;;;;;;;1035326;28;20034;-16
2023/03/29 00:58:06;;;;;;;7.93;4.15;;;;;;;;;;1035602;28;20031;-17
2023/03/29 00:58:40;;;;;;;29.13;4.25;;;;;;;;;;1034924;28;20152;-20
2023/03/29 00:59:14;;;;;;;20.23;3.53;;;;;;;;;;1034821;28;20100;-17
2023/03/29 00:59:46;;;;;;;13.48;4.78;;;;;;;;;;1034423;28;20026;-21
2023/03/29 01:00:19;;;;;;;9.02;3.28;;;;;;;;;;1035009;28;20406;-19
2023/03/29 01:00:54;;;;;;;7.57;4.22;;;;;;;;;;1035441;28;20049;-15
2023/03/29 01:01:29;;;;;;;6.15;4.13;;;;;;;;;;1034305;28;20457;-19
2023/03/29 01:02:01;;;;;;;11.35;4.60;;;;;;;;;;1035789;28;20037;-19
2023/03/29 01:02:33;;;;;;;24.38;6.20;;;;;;;;;;1035283;28;20029;-19
2023/03/29 01:03:07;;;;;;;4.45;2.65;;;;;;;;;;1035422;28;20041;-17
2023/03/29 01:03:45;;;;;;;4.50;3.10;;;;;;;;;;1035211;28;20045;-20
2023/03/29 01:04:22;;;;;;;14.68;4.35;;;;;;;;;;1035786;28;20512;-19
2023/03/29 01:05:04;;;;;;;8.52;4.40;;;;;;;;;;1034945;28;20401;-19
2023/03/29 01:05:37;;;;;;;9.70;7.05;;;;;;;;;;1035531;28;20033;-20
2023/03/29 01:06:08;;;;;;;11.40;6.65;;;;;;;;;;1034915;28;20018;-18
2023/03/29 01:06:42;;;;;;;15.45;6.88;;;;;;;;;;1035248;28;20028;-20
2023/03/29 01:07:20;;;;;;;15.98;9.32;;;;;;;;;;1035389;28;20022;-22
2023/03/29 01:07:56;;;;;;;15.23;8.38;;;;;;;;;;1034929;28;20531;-19
2023/03/29 01:08:30;;;;;;;9.50;7.38;;;;;;;;;;1035418;28;20381;-20
2023/03/29 01:09:06;;;;;;;10.38;6.47;;;;;;;;;;1034287;28;20026;-18
2023/03/29 01:09:38;;;;;;;9.40;5.43;;;;;;;;;;1035034;28;20018;-20
2023/03/29 01:10:09;;;;;;;6.63;3.85;;;;;;;;;;1035563;28;20030;-19
2023/03/29 01:10:46;;;;;;;10.05;5.80;;;;;;;;;;1035499;28;20043;-20
2023/03/29 01:11:21;;;;;;;14.05;3.95;;;;;;;;;;1035061;28;20076;-20
2023/03/29 01:11:55;;;;;;;14.10;6.85;;;;;;;;;;1034689;28;20025;-18
2023/03/29 01:12:28;;;;;;;20.35;5.45;;;;;;;;;;1035105;28;20030;-21
2023/03/29 01:13:09;;;;;;;11.30;4.07;;;;;;;;;;1035036;28;20076;-18
2023/03/29 01:13:42;;;;;;;7.85;4.32;;;;;;;;;;1034897;28;20506;-22
2023/03/29 01:14:17;;;;;;;10.57;3.58;;;;;;;;;;1034301;28;20014;-19
2023/03/29 01:14:51;;;;;;;13.55;5.28;;;;;;;;;;1035189;28;20552;-22
2023/03/29 01:15:24;;;;;;;6.68;4.93;;;;;;;;;;1035012;28;20433;-20
2023/03/29 01:15:57;;;;;;;10.70;6.00;;;;;;;;;;1035379;28;20029;-20
2023/03/29 01:16:29;;;;;;;5.43;3.88;;;;;;;;;;1035242;28;20116;-23
2023/03/29 01:16:59;;;;;;;13.75;5.75;;;;;;;;;;1034527;28;20030;-18
2023/03/29 01:17:30;;;;;;;17.42;9.07;;;;;;;;;;1035034;28;20477;-18
2023/03/29 01:18:00;;;;;;;53.80;21.80;;;;;;;;;;1035694;28;20108;-19
2023/03/29 01:18:32;;;;;;;17.10;8.55;;;;;;;;;;1035323;28;20075;-19
2023/03/29 01:19:04;;;;;;;8.52;6.05;;;;;;;;;;1009657;28;20017;-21
2023/03/29 01:19:39;;;;;;;23.98;5.20;;;;;;;;;;1034878;28;20033;-22
2023/03/29 01:20:16;;;;;;;20.90;8.20;;;;;;;;;;1034608;28;20033;-19
2023/03/29 01:21:03;;;;;;;18.20;4.75;;;;;;;;;;1033040;28;20034;-21
2023/03/29 01:21:43;;;;;;;6.35;4.32;;;;;;;;;;1034907;28;20021;-22
2023/03/29 01:22:16;;;;;;;8.95;3.17;;;;;;;;;;1034562;28;20393;-22
2023/03/29 01:23:06;;;;;;;15.50;4.18;;;;;;;;;;1033983;28;20026;-20
2023/03/29 01:23:57;;;;;;;6.23;4.23;;;;;;;;;;1034946;28;20433;-19
2023/03/29 01:24:40;;;;;;;10.77;3.03;;;;;;;;;;1035218;28;20818;-19
2023/03/29 01:25:30;;;;;;;4.85;3.28;;;;;;;;;;1035158;28;20021;-21
2023/03/29 01:26:03;;;;;;;6.80;4.05;;;;;;;;;;1034445;28;20073;-21
2023/03/29 01:26:47;;;;;;;15.52;6.30;;;;;;;;;;1033285;28;20025;-21
2023/03/29 01:27:21;;;;;;;9.63;4.63;;;;;;;;;;1033926;28;20044;-19
2023/03/29 01:27:54;;;;;;;7.47;3.50;;;;;;;;;;1032691;28;20118;-22
2023/03/29 01:28:34;;;;;;;16.38;5.70;;;;;;;;;;1030872;28;20034;-20
2023/03/29 01:29:17;;;;;;;14.45;5.53;;;;;;;;;;1032125;28;20737;-20
2023/03/29 01:29:49;;;;;;;11.57;4.18;;;;;;;;;;1033105;28;20034;-22
2023/03/29 01:30:24;;;;;;;14.93;6.00;;;;;;;;;;1032897;28;20029;-19
2023/03/29 01:30:58;;;;;;;6.10;4.93;;;;;;;;;;1033240;28;20504;-19
2023/03/29 01:31:31;;;;;;;17.77;6.20;;;;;;;;;;1031940;28;20128;-23
2023/03/29 01:32:03;;;;;;;11.85;5.90;;;;;;;;;;1034106;28;20541;-20
2023/03/29 01:32:38;;;;;;;20.00;4.63;;;;;;;;;;1033915;28;20547;-20
2023/03/29 01:33:20;;;;;;;8.65;4.45;;;;;;;;;;1034616;28;20030;-22
2023/03/29 01:33:52;;;;;;;18.50;5.00;;;;;;;;;;1034867;28;20033;-23
2023/03/29 01:34:24;;;;;;;20.30;5.00;;;;;;;;;;1033947;28;20056;-20
2023/03/29 01:35:09;;;;;;;5.53;2.88;;;;;;;;;;1034145;28;20036;-21
2023/03/29 01:36:00;;;;;;;15.52;4.38;;;;;;;;;;1033900;28;20033;-20
2023/03/29 01:36:36;;;;;;;9.40;5.88;;;;;;;;;;1032376;28;20025;-20
2023/03/29 01:37:25;;;;;;;8.80;4.35;;;;;;;;;;1033782;28;20061;-18
2023/03/29 01:38:01;;;;;;;17.38;6.53;;;;;;;;;;1034149;28;20380;-22
2023/03/29 01:38:42;;;;;;;11.40;6.03;;;;;;;;;;1034170;28;20189;-19
2023/03/29 01:39:12;;;;;;;;;;;;;;;;;;1035347;28;20030;-18
2023/03/29 01:39:45;;;;;;;8.65;5.95;;;;;;;;;;1033683;28;19914;-21
2023/03/29 01:40:15;;;;;;;16.75;5.25;;;;;;;;;;1034362;28;20423;-19
2023/03/29 01:40:46;;;;;;;9.10;6.20;;;;;;;;;;1034098;28;20057;-23
2023/03/29 01:41:16;;;;;;;8.25;4.15;;;;;;;;;;1034820;28;20476;-21
2023/03/29 01:41:56;;;;;;;5.75;4.15;;;;;;;;;;1033070;28;20096;-17
2023/03/29 01:42:27;;;;;;;10.87;3.17;;;;;;;;;;1035241;28;20041;-19
2023/03/29 01:43:20;;;;;;;9.23;3.97;;;;;;;;;;1033465;28;20299;-21
2023/03/29 01:43:51;;;;;;;18.10;7.03;;;;;;;;;;1023924;28;21002;-22
2023/03/29 01:44:30;;;;;;;15.65;4.25;;;;;;;;;;1034313;28;20030;-21
2023/03/29 01:45:12;;;;;;;7.65;4.70;;;;;;;;;;1034136;28;20125;-21
2023/03/29 01:45:54;;;;;;;15.02;6.03;;;;;;;;;;1034678;28;20069;-19
2023/03/29 01:46:42;;;;;;;10.07;6.65;;;;;;;;;;1033605;28;20041;-19
2023/03/29 01:47:14;;;;;;;30.52;14.77;;;;;;;;;;1034882;28;20053;-19
2023/03/29 01:47:52;;;;;;;79.80;19.70;;;;;;;;;;1034449;28;20125;-20
2023/03/29 01:48:29;;;;;;;33.63;17.10;;;;;;;;;;1033524;28;20057;-20
2023/03/29 01:49:00;;;;;;;43.53;19.40;;;;;;;;;;1034415;28;20037;-22
2023/03/29 01:49:31;;;;;;;40.55;19.98;;;;;;;;;;1033873;28;20433;-22
2023/03/29 01:50:31;;;;;;;40.28;16.90;;;;;;;;;;1035132;28;20076;-19
2023/03/29 01:51:04;;;;;;;27.65;12.25;;;;;;;;;;1021807;28;20038;-20
2023/03/29 01:51:37;;;;;;;24.05;13.07;;;;;;;;;;1033472;28;20060;-22
2023/03/29 01:52:10;;;;;;;40.17;15.32;;;;;;;;;;1034287;28;20030;-20
2023/03/29 01:53:07;;;;;;;22.63;14.93;;;;;;;;;;1032487;28;20445;-22
2023/03/29 01:53:53;;;;;;;25.65;11.68;;;;;;;;;;1021628;29;20039;-19
2023/03/29 01:54:27;;;;;;;22.55;12.20;;;;;;;;;;1029488;28;20039;-18
2023/03/29 01:55:10;;;;;;;39.50;16.30;;;;;;;;;;1033885;28;20029;-22
2023/03/29 01:55:43;;;;;;;36.97;11.65;;;;;;;;;;1034399;28;20041;-21
2023/03/29 01:56:16;;;;;;;22.38;9.82;;;;;;;;;;1033638;28;20036;-20
2023/03/29 01:56:47;;;;;;;14.32;8.50;;;;;;;;;;1032883;28;20033;-21
2023/03/29 01:57:18;;;;;;;17.27;11.43;;;;;;;;;;1033820;28;20112;-21
2023/03/29 01:57:51;;;;;;;15.68;10.43;;;;;;;;;;1034638;28;20371;-20
2023/03/29 01:58:25;;;;;;;18.02;7.63;;;;;;;;;;1032140;28;20026;-23
2023/03/29 01:58:58;;;;;;;19.63;8.30;;;;;;;;;;1034815;28;20437;-19
2023/03/29 01:59:32;;;;;;;11.13;8.32;;;;;;;;;;1034227;28;20079;-21
2023/03/29 02:00:10;;;;;;;21.38;8.68;;;;;;;;;;1032976;28;20080;-17
2023/03/29 02:00:42;;;;;;;13.02;6.28;;;;;;;;;;1034813;28;20372;-22
2023/03/29 02:01:16;;;;;;;11.98;7.45;;;;;;;;;;1033217;28;20032;-22
2023/03/29 02:01:53;;;;;;;16.42;8.00;;;;;;;;;;1034148;28;20117;-19
2023/03/29 02:02:26;;;;;;;11.95;8.55;;;;;;;;;;1032507;28;20037;-20
2023/03/29 02:02:59;;;;;;;27.20;7.47;;;;;;;;;;1034609;28;20045;-20
2023/03/29 02:03:30;;;;;;;35.97;8.48;;;;;;;;;;1032332;28;20030;-20
2023/03/29 02:04:02;;;;;;;37.67;11.38;;;;;;;;;;1032413;28;20026;-19
2023/03/29 02:04:36;;;;;;;21.05;8.45;;;;;;;;;;1033137;28;20387;-21
2023/03/29 02:05:08;;;;;;;21.10;8.55;;;;;;;;;;1033734;28;20026;-19
2023/03/29 02:05:41;;;;;;;18.70;7.75;;;;;;;;;;1034205;28;20056;-19
2023/03/29 02:06:14;;;;;;;13.73;8.52;;;;;;;;;;1032761;28;20037;-17
2023/03/29 02:06:45;;;;;;;36.25;7.18;;;;;;;;;;1033254;28;20501;-20
2023/03/29 02:07:17;;;;;;;17.23;7.43;;;;;;;;;;1034070;28;20125;-22
2023/03/29 02:07:49;;;;;;;30.42;8.60;;;;;;;;;;1034082;28;20160;-21
2023/03/29 02:08:21;;;;;;;19.73;8.35;;;;;;;;;;1034495;28;20092;-21
2023/03/29 02:08:53;;;;;;;15.80;9.02;;;;;;;;;;1031464;28;20578;-22
2023/03/29 02:09:23;;;;;;;18.50;7.28;;;;;;;;;;1030243;28;20030;-19
2023/03/29 02:09:54;;;;;;;10.45;6.75;;;;;;;;;;1031908;28;20062;-20
2023/03/29 02:10:26;;;;;;;11.23;6.38;;;;;;;;;;1033847;28;20124;-21
2023/03/29 02:10:57;;;;;;;23.42;7.32;;;;;;;;;;1032321;28;20076;-20
2023/03/29 02:11:28;;;;;;;27.25;7.07;;;;;;;;;;1033556;28;20056;-19
2023/03/29 02:12:00;;;;;;;16.75;7.95;;;;;;;;;;1032955;28;20061;-19
2023/03/29 02:12:31;;;;;;;19.88;7.68;;;;;;;;;;1029455;28;20506;-19
2023/03/29 02:13:01;;;;;;;20.17;8.30;;;;;;;;;;1030104;28;20037;-22
2023/03/29 02:13:33;;;;;;;18.58;8.07;;;;;;;;;;1034036;28;20061;-21
2023/03/29 02:14:04;;;;;;;18.33;10.07;;;;;;;;;;1034067;28;20033;-19
2023/03/29 02:14:35;;;;;;;23.13;8.18;;;;;;;;;;1034405;28;20662;-19
2023/03/29 02:15:10;;;;;;;21.92;6.68;;;;;;;;;;1032596;28;20026;-20
2023/03/29 02:15:40;;;;;;;30.33;10.30;;;;;;;;;;1032678;28;20490;-20
2023/03/29 02:16:12;;;;;;;13.60;7.05;;;;;;;;;;1034303;28;20038;-19
2023/03/29 02:16:45;;;;;;;17.10;10.98;;;;;;;;;;1032317;28;20041;-21
2023/03/29 02:17:20;;;;;;;18.88;11.48;;;;;;;;;;1032833;28;20675;-23
2023/03/29 02:17:51;;;;;;;41.85;8.57;;;;;;;;;;1035553;28;20474;-23
2023/03/29 02:18:22;;;;;;;40.47;10.98;;;;;;;;;;1029893;28;20034;-18
2023/03/29 02:18:55;;;;;;;15.52;11.30;;;;;;;;;;1034320;28;20486;-21
2023/03/29 02:19:26;;;;;;;18.60;8.75;;;;;;;;;;1034313;28;20025;-18
2023/03/29 02:20:00;;;;;;;23.85;9.57;;;;;;;;;;1034844;28;20025;-20
2023/03/29 02:20:32;;;;;;;37.75;11.15;;;;;;;;;;1033283;28;20124;-21
2023/03/29 02:21:03;;;;;;;31.75;10.40;;;;;;;;;;1034624;28;20053;-23
2023/03/29 02:21:36;;;;;;;29.15;9.02;;;;;;;;;;1032654;28;20485;-22
2023/03/29 02:22:09;;;;;;;28.80;10.95;;;;;;;;;;1033863;28;20060;-21
2023/03/29 02:22:46;;;;;;;19.15;8.93;;;;;;;;;;1033592;28;20048;-20
2023/03/29 02:23:27;;;;;;;22.27;8.75;;;;;;;;;;1034287;28;20042;-22
2023/03/29 02:23:59;;;;;;;29.08;10.50;;;;;;;;;;1033487;28;20448;-22
2023/03/29 02:24:35;;;;;;;11.18;7.55;;;;;;;;;;1033269;28;20026;-23
2023/03/29 02:25:08;;;;;;;24.73;10.73;;;;;;;;;;1033683;28;20042;-23
2023/03/29 02:25:39;;;;;;;24.42;10.20;;;;;;;;;;1032605;28;20049;-18
2023/03/29 02:26:10;;;;;;;16.38;8.05;;;;;;;;;;1034517;28;20391;-22
2023/03/29 02:26:41;;;;;;;32.88;10.50;;;;;;;;;;1033922;28;20068;-22
2023/03/29 02:27:13;;;;;;;12.52;6.60;;;;;;;;;;1034313;28;20040;-19
2023/03/29 02:27:44;;;;;;;18.40;9.57;;;;;;;;;;1032613;28;20561;-22
2023/03/29 02:28:16;;;;;;;15.18;9.30;;;;;;;;;;1033658;28;20037;-19
2023/03/29 02:28:46;;;;;;;39.95;10.95;;;;;;;;;;1033189;28;20555;-21
2023/03/29 02:29:17;;;;;;;18.63;10.85;;;;;;;;;;1033364;28;20202;-23
2023/03/29 02:29:48;;;;;;;18.98;10.13;;;;;;;;;;1033942;28;20034;-18
2023/03/29 02:30:19;;;;;;;17.92;9.02;;;;;;;;;;1034477;28;20087;-23
2023/03/29 02:30:53;;;;;;;17.55;12.35;;;;;;;;;;1033679;28;20028;-22
2023/03/29 02:31:32;;;;;;;33.67;10.02;;;;;;;;;;1034594;28;20053;-21
2023/03/29 02:32:07;;;;;;;15.45;9.90;;;;;;;;;;1034944;28;20033;-20
2023/03/29 02:32:48;;;;;;;22.63;10.48;;;;;;;;;;1033381;28;20033;-19
2023/03/29 02:33:22;;;;;;;24.60;11.57;;;;;;;;;;1034684;28;20029;-22
2023/03/29 02:34:11;;;;;;;25.55;10.70;;;;;;;;;;1033352;28;20056;-19
2023/03/29 02:34:48;;;;;;;27.20;11.02;;;;;;;;;;1033792;28;20074;-18
2023/03/29 02:35:26;;;;;;;18.17;10.60;;;;;;;;;;1041327;28;20033;-19
2023/03/29 02:36:03;;;;;;;23.40;8.48;;;;;;;;;;1041071;28;20066;-22
2023/03/29 02:36:42;;;;;;;32.95;11.10;;;;;;;;;;1040261;28;20543;-19
2023/03/29 02:37:14;;;;;;;45.75;15.73;;;;;;;;;;1036141;28;20061;-21
2023/03/29 02:37:48;;;;;;;24.05;10.85;;;;;;;;;;1032307;28;20462;-18
2023/03/29 02:38:19;;;;;;;32.65;9.38;;;;;;;;;;1034435;28;20041;-20
2023/03/29 02:38:51;;;;;;;32.15;10.18;;;;;;;;;;1033044;28;20141;-21
2023/03/29 02:39:24;;;;;;;25.40;11.02;;;;;;;;;;1032516;28;20415;-23
2023/03/29 02:39:57;;;;;;;39.67;10.65;;;;;;;;;;1034698;28;20081;-18
2023/03/29 02:40:28;;;;;;;26.60;9.98;;;;;;;;;;1031575;28;20040;-20
2023/03/29 02:40:59;;;;;;;22.67;11.10;;;;;;;;;;1033244;28;20037;-18
2023/03/29 02:41:30;;;;;;;31.17;12.30;;;;;;;;;;1027044;28;20027;-22
2023/03/29 02:42:02;;;;;;;36.88;8.45;;;;;;;;;;1032944;28;20077;-19
2023/03/29 02:42:42;;;;;;;30.02;7.32;;;;;;;;;;1031181;28;20079;-22
2023/03/29 02:43:16;;;;;;;26.00;9.90;;;;;;;;;;1033391;28;20026;-21
2023/03/29 02:43:47;;;;;;;17.25;7.32;;;;;;;;;;1033972;28;20030;-21
2023/03/29 02:44:20;;;;;;;17.88;8.50;;;;;;;;;;1034904;28;20425;-22
2023/03/29 02:44:52;;;;;;;14.52;7.55;;;;;;;;;;1034014;28;20026;-21
2023/03/29 02:45:25;;;;;;;13.05;8.13;;;;;;;;;;1033741;28;20025;-23
2023/03/29 02:45:58;;;;;;;20.25;7.13;;;;;;;;;;1040738;28;20433;-22
2023/03/29 02:46:32;;;;;;;13.30;5.07;;;;;;;;;;1035661;28;20489;-20
2023/03/29 02:47:37;;;;;;;12.55;7.03;;;;;;;;;;1033239;28;20022;-22
2023/03/29 02:48:09;;;;;;;22.63;7.57;;;;;;;;;;1013597;29;20119;-22
2023/03/29 02:48:40;;;;;;;9.15;6.05;;;;;;;;;;1017072;28;20444;-21
2023/03/29 02:49:12;;;;;;;16.73;4.95;;;;;;;;;;1024431;28;20032;-22
2023/03/29 02:49:42;;;;;;;18.42;6.28;;;;;;;;;;1033363;28;20026;-23
2023/03/29 02:50:13;;;;;;;22.52;6.30;;;;;;;;;;1033409;28;20200;-22
2023/03/29 02:50:46;;;;;;;15.98;5.68;;;;;;;;;;1033009;28;20022;-22
2023/03/29 02:51:22;;;;;;;27.23;8.70;;;;;;;;;;1031857;28;20506;-22
2023/03/29 02:51:55;;;;;;;6.43;5.05;;;;;;;;;;1029281;28;20113;-22
2023/03/29 02:52:32;;;;;;;9.43;6.18;;;;;;;;;;1030555;28;20032;-22
2023/03/29 02:53:08;;;;;;;10.50;8.20;;;;;;;;;;1026509;28;20038;-22
2023/03/29 02:54:07;;;;;;;11.20;5.20;;;;;;;;;;1028217;28;20022;-21
2023/03/29 02:54:42;;;;;;;20.40;8.05;;;;;;;;;;1030624;28;20091;-21
2023/03/29 02:55:14;;;;;;;23.13;7.25;;;;;;;;;;1028830;28;20033;-19
2023/03/29 02:55:46;;;;;;;16.80;4.65;;;;;;;;;;1034001;28;20040;-20
2023/03/29 02:56:22;;;;;;;8.50;5.03;;;;;;;;;;1031948;28;20498;-23
2023/03/29 02:57:05;;;;;;;6.57;4.22;;;;;;;;;;1033529;28;20490;-20
2023/03/29 02:57:42;;;;;;;13.57;5.80;;;;;;;;;;1033295;28;20584;-20
2023/03/29 02:58:15;;;;;;;18.83;5.95;;;;;;;;;;1026487;28;20043;-22
2023/03/29 02:58:45;;;;;;;32.47;7.70;;;;;;;;;;1028981;28;20568;-23
2023/03/29 02:59:21;;;;;;;10.18;5.05;;;;;;;;;;1031446;28;20038;-21
2023/03/29 03:00:03;;;;;;;8.65;4.97;;;;;;;;;;1038618;28;20033;-23
2023/03/29 03:00:41;;;;;;;17.25;7.95;;;;;;;;;;1037101;28;20456;-21
2023/03/29 03:01:13;;;;;;;14.32;4.22;;;;;;;;;;1032693;28;20361;-21
2023/03/29 03:01:46;;;;;;;9.10;4.50;;;;;;;;;;1025677;28;20039;-19
2023/03/29 03:02:18;;;;;;;10.10;6.63;;;;;;;;;;1022008;28;20083;-19
2023/03/29 03:02:49;;;;;;;18.98;6.60;;;;;;;;;;1025634;28;20057;-21
2023/03/29 03:03:24;;;;;;;13.07;4.90;;;;;;;;;;1029232;28;20026;-22
2023/03/29 03:04:08;;;;;;;11.20;5.50;;;;;;;;;;1033616;28;20087;-19
2023/03/29 03:04:52;;;;;;;14.68;6.00;;;;;;;;;;1035434;28;20084;-18
2023/03/29 03:05:23;;;;;;;11.68;6.75;;;;;;;;;;1036885;28;20099;-19
2023/03/29 03:05:56;;;;;;;17.13;6.95;;;;;;;;;;1036536;28;20037;-22
2023/03/29 03:06:29;;;;;;;6.05;4.57;;;;;;;;;;1035519;28;20029;-20
2023/03/29 03:07:04;;;;;;;11.48;6.50;;;;;;;;;;1031610;28;20049;-21
2023/03/29 03:07:34;;;;;;;9.43;6.28;;;;;;;;;;1030852;28;20081;-21
2023/03/29 03:08:08;;;;;;;18.38;8.15;;;;;;;;;;1032824;28;20076;-22
2023/03/29 03:08:38;;;;;;;13.63;6.95;;;;;;;;;;1031646;28;20125;-21
2023/03/29 03:09:10;;;;;;;25.15;5.63;;;;;;;;;;1034490;28;20025;-21
2023/03/29 03:09:42;;;;;;;24.08;6.45;;;;;;;;;;1029355;28;20041;-21
2023/03/29 03:10:14;;;;;;;27.67;10.77;;;;;;;;;;1033490;28;20021;-22
2023/03/29 03:10:46;;;;;;;34.60;7.45;;;;;;;;;;1036320;28;20076;-22
2023/03/29 03:11:17;;;;;;;13.30;9.43;;;;;;;;;;1036314;28;20133;-21
2023/03/29 03:11:48;;;;;;;16.92;7.00;;;;;;;;;;1011393;28;20178;-22
2023/03/29 03:12:20;;;;;;;36.30;9.15;;;;;;;;;;1032981;28;20109;-21
2023/03/29 03:12:53;;;;;;;17.88;8.38;;;;;;;;;;1027930;28;20034;-21
2023/03/29 03:13:26;;;;;;;18.00;7.13;;;;;;;;;;1027505;28;20037;-22
2023/03/29 03:13:58;;;;;;;9.27;5.95;;;;;;;;;;1033471;28;20037;-22
2023/03/29 03:14:29;;;;;;;14.20;8.85;;;;;;;;;;1031177;28;20026;-21
2023/03/29 03:15:02;;;;;;;16.80;4.93;;;;;;;;;;1034099;28;20045;-20
2023/03/29 03:15:34;;;;;;;15.52;8.15;;;;;;;;;;1030563;28;20036;-19
2023/03/29 03:16:08;;;;;;;13.43;6.07;;;;;;;;;;1032673;28;20022;-21
2023/03/29 03:16:38;;;;;;;16.80;7.78;;;;;;;;;;1031753;28;20060;-20
2023/03/29 03:17:10;;;;;;;21.65;6.88;;;;;;;;;;1032468;28;20021;-22
2023/03/29 03:17:41;;;;;;;22.58;9.02;;;;;;;;;;1033475;28;20034;-23
2023/03/29 03:18:13;;;;;;;11.50;7.72;;;;;;;;;;1031141;28;20030;-21
2023/03/29 03:18:44;;;;;;;28.17;6.55;;;;;;;;;;1030865;28;20406;-18
2023/03/29 03:19:15;;;;;;;12.48;8.20;;;;;;;;;;1030304;28;20450;-21
2023/03/29 03:19:48;;;;;;;18.83;6.07;;;;;;;;;;1033973;28;20136;-21
2023/03/29 03:20:22;;;;;;;9.75;6.40;;;;;;;;;;1038452;28;20526;-23